Paia, Hawaii
Current Conditions -  °F | °C
As of 6:54 AM on Thursday 30 Oct 2014 (Local Time) from PHOG Reporting Station
Few Clouds Few Clouds  
Wind Chill: 75°   Ceiling: Unl
Heat Index: 75°   Visibility: 10mi
Dew Point: 65°   Wind: 14mph
Humidity: 71%   Direction: 50°NE
Pressure: 30.06"   Gusts: NA
Location:  20.89°N, 156.36°W
Report Text: PHOG 301654Z 05012KT 10SM FEW045 24/18 A3006 RMK AO2 SLP185 T02390183
Loading
Personal Weather Stations






























Interactive Weather Map
Tropical Storm Tracking
New forecast layout! Learn more

10-Day Weather Forecast

Advertisements
Track Severe Weather on mobile